Flight Track Log - Related Links

Times and Time Zones

All times are in EDT time to prevent confusion due to time zone crossing. See the SWA104 flight status page for this flight to view local times or setup timezone preferences in your user account.

Time Position Orientation Groundspeed Altitude Reporting Facility
EDT Latitude Longitude Course Direction KTS MPH feet Rate Location/Type
Sun 08:43:48 PM 42.9500 -71.4167 202° Southwest 162 186 1,000  Level KA90
Sun 08:44:06 PM 42.9667 -71.4167 360° North 192 221 1,600 2,571 Climbing KA90
Sun 08:45:12 PM 43.0186 -71.3836 25° Northeast 236 272 4,600 3,619 Climbing Boston Center
Sun 08:46:12 PM 43.0428 -71.3067 67° East 191 220 9,200 3,200 Climbing Boston Center
Sun 08:47:12 PM 43.0522 -71.2014 83° East 242 278 11,000 2,550 Climbing Boston Center
Sun 08:48:12 PM 43.0675 -71.0872 80° East 318 366 14,300 3,500 Climbing Boston Center
Sun 08:49:00 PM 42.9279 -70.8975 202° Southwest  Level FlightAware Approximate
Sun 08:49:12 PM 43.0492 -70.9456 100° East 344 396 18,000  Level Boston Center
Sun 08:50:12 PM 42.9650 -70.8908 155° Southeast 325 374 20,100 2,350 Climbing Boston Center
Sun 08:51:12 PM 42.8594 -70.9417 199° South 293 337 22,700 2,650 Climbing Boston Center
Sun 08:52:12 PM 42.7519 -71.0150 207° Southwest 354 407 25,400 2,600 Climbing Boston Center
Sun 08:53:12 PM 42.6828 -71.1408 233° Southwest 374 430 27,900 1,250 Climbing Boston Center
Sun 08:54:12 PM 42.6092 -71.2750 233° Southwest 406 467 27,900 50 Level Boston Center
Sun 08:55:12 PM 42.5333 -71.4117 233° Southwest 442 509 28,000 50 Climbing Boston Center
Sun 08:56:12 PM 42.4614 -71.5481 234° Southwest 452 520 28,000  Level Boston Center
Sun 08:57:12 PM 42.3833 -71.6783 231° Southwest 452 520 28,000  Level Boston Center
Sun 08:58:12 PM 42.3069 -71.8111 232° Southwest 452 520 28,000  Level Boston Center
Sun 08:59:12 PM 42.2347 -71.9408 233° Southwest 447 514 28,000  Level Boston Center
Sun 09:00:12 PM 42.1581 -72.0733 232° Southwest 447 514 28,000  Level Boston Center
Sun 09:01:12 PM 42.0856 -72.2022 233° Southwest 442 509 28,000  Level Boston Center
Sun 09:02:12 PM 42.0106 -72.3339 233° Southwest 442 509 28,000  Level Boston Center
Sun 09:03:12 PM 41.9356 -72.4653 233° Southwest 442 509 28,000  Level Boston Center
Sun 09:04:12 PM 41.8606 -72.5906 231° Southwest 442 509 28,000  Level Boston Center
Sun 09:05:12 PM 41.7872 -72.7214 233° Southwest 442 509 28,000  Level Boston Center
Sun 09:06:12 PM 41.7097 -72.8517 231° Southwest 448 516 28,000  Level Boston Center
Sun 09:07:12 PM 41.6281 -72.9928 232° Southwest 448 516 28,000  Level Boston Center
Sun 09:08:12 PM 41.5542 -73.1225 233° Southwest 448 516 28,000  Level Boston Center
Sun 09:10:07 PM 41.4167 -73.3553 232° Southwest 426 490 28,000  Level New York Center
Sun 09:11:04 PM 41.3408 -73.4847 232° Southwest 432 497 28,000  Level New York Center
Sun 09:12:06 PM 41.2669 -73.6089 232° Southwest 432 497 28,000  Level New York Center
Sun 09:13:06 PM 41.1931 -73.7353 232° Southwest 432 497 28,000  Level New York Center
Sun 09:14:06 PM 41.1211 -73.8586 232° Southwest 432 497 28,000  Level New York Center
Sun 09:15:06 PM 41.0472 -73.9819 232° Southwest 432 497 28,000  Level New York Center
Sun 09:16:04 PM 40.9750 -74.1022 232° Southwest 432 497 28,000  Level New York Center
Sun 09:17:06 PM 40.8989 -74.2192 229° Southwest 432 497 28,000  Level New York Center
Sun 09:18:06 PM 40.8264 -74.3389 231° Southwest 432 497 28,000  Level New York Center
Sun 09:19:06 PM 40.7561 -74.4556 232° Southwest 427 491 28,000  Level New York Center
Sun 09:20:05 PM 40.6836 -74.5750 231° Southwest 427 491 28,000 -350 Level New York Center
Sun 09:21:06 PM 40.6108 -74.6967 232° Southwest 433 498 27,300 -787 Descending New York Center
Sun 09:22:07 PM 40.5319 -74.8150 229° Southwest 433 498 26,400 -966 Descending New York Center
Sun 09:23:04 PM 40.4531 -74.9275 227° Southwest 433 498 25,400 -1,000 Descending New York Center
Sun 09:24:07 PM 40.3919 -75.0575 238° Southwest 428 493 24,400 -992 Descending New York Center
Sun 09:25:05 PM 40.3350 -75.1900 241° Southwest 423 487 23,400 -1,412 Descending New York Center
Sun 09:26:06 PM 40.2842 -75.3203 243° Southwest 417 480 21,600 -2,331 Descending New York Center
Sun 09:27:06 PM 40.2336 -75.4447 242° Southwest 405 466 18,700 -1,831 Descending New York Center
Sun 09:28:04 PM 40.1706 -75.5628 235° Southwest 400 460 18,000 -350 Descending New York Center
Sun 09:29:06 PM 40.0897 -75.6519 220° Southwest 388 447 18,000  Level New York Center
Sun 09:30:06 PM 40.0086 -75.7467 222° Southwest 388 447 18,000  Level New York Center
Sun 09:31:05 PM 39.9275 -75.8383 221° Southwest 388 447 18,000 -388 Level New York Center
Sun 09:32:56 PM 39.7833 -76.0167 224° Southwest 379 436 16,900 -1,333 Descending Potomac TRACON
Sun 09:33:56 PM 39.7000 -76.1000 218° Southwest 381 438 14,200 -2,550 Descending Potomac TRACON
Sun 09:34:56 PM 39.6333 -76.2000 229° Southwest 359 413 11,800 -1,750 Descending Potomac TRACON
Sun 09:35:56 PM 39.5833 -76.3000 237° Southwest 311 358 10,700 -1,000 Descending Potomac TRACON
Sun 09:36:56 PM 39.5333 -76.3667 226° Southwest 276 318 9,800 -1,100 Descending Potomac TRACON
Sun 09:37:56 PM 39.4833 -76.4500 232° Southwest 258 297 8,500 -1,400 Descending Potomac TRACON
Sun 09:38:56 PM 39.4333 -76.5167 226° Southwest 256 295 7,000 -1,550 Descending Potomac TRACON
Sun 09:39:56 PM 39.4000 -76.5833 237° Southwest 255 293 5,400 -1,500 Descending Potomac TRACON
Sun 09:40:56 PM 39.3500 -76.6500 226° Southwest 253 291 4,000 -700 Descending Potomac TRACON
Sun 09:41:56 PM 39.3000 -76.7167 226° Southwest 234 269 4,000 -150 Level Potomac TRACON
Sun 09:42:56 PM 39.2667 -76.7833 237° Southwest 211 243 3,700 -500 Descending Potomac TRACON
Sun 09:43:56 PM 39.2333 -76.8500 237° Southwest 199 229 3,000 -500 Descending Potomac TRACON
Sun 09:44:56 PM 39.2000 -76.8500 180° South 164 189 2,700 -550 Descending Potomac TRACON
Sun 09:45:56 PM 39.1833 -76.8000 113° Southeast 164 189 1,900 -750 Descending Potomac TRACON
Sun 09:46:56 PM 39.1833 -76.7500 90° East 129 148 1,200 -700 Descending Potomac TRACON
Sun 09:47:56 PM 39.1833 -76.7167 90° East 130 150 500 -700 Descending Potomac TRACON
Sun 09:49:00 PM 39.1667 -76.6667 270° West  Level FlightAware Approximate

Login

Don't have an account? Register now (free) for customized features, flight alerts, and more!